Ocontofalls, Wisconsin
Current Conditions -  °F | °C
As of 11:15 AM on Saturday 25 Oct 2014 (Local Time) from KOCQ Reporting Station
Clear Clear  
Wind Chill: 60°   Ceiling: Unl
Heat Index: 60°   Visibility: 10mi
Dew Point: 34°   Wind: 15mph
Humidity: 38%   Direction: 290°WNW
Pressure: 29.8"   Gusts: 28mph
Location:  44.8816°N, 88.1735°W
Report Text: KOCQ 251615Z AUTO 29013G24KT 10SM CLR 16/01 A2980 RMK AO1 T01550012
Loading
Personal Weather Stations






























Interactive Weather Map
Tropical Storm Tracking
New forecast layout! Learn more

10-Day Weather Forecast

Advertisements
Track Severe Weather on mobile